Latest Weather Observations for Mount Crawford

IDS60801

Issued at 10:31 pm CST Wednesday 25 May 2016 (issued every 30 minutes, with the page automatically refreshed every 10 minutes)

About weather observations | Map of weather stations | Latest weather observations for SA | Other Formats
Station Details ID: 023878 Name: MOUNT CRAWFORD AWS Lat: -34.73 Lon: 138.93 Height: 525.0 m
Data from the previous 72 hours. | See also: Recent months at Mount Crawford
Date/Time
CST
Temp
°C
App
Temp
°C
Dew
Point
Rel
Hum
%
Delta-T
°C
Wind Press
QNH
hPa
Press
MSL
hPa
Rain
since 9 am
mm
Dir
 
Spd
km/h
Gust
km/h
Spd
kts
Gust
kts
25/10:30pm 10.6 8.0 10.6 100 0.0 NW 15 22 8 12 1007.0 1006.5 25.6
25/10:00pm 10.5 7.1 10.5 100 0.0 WNW 19 28 10 15 1007.6 1007.1 23.2
25/09:30pm 10.4 7.7 10.4 100 0.0 WNW 15 20 8 11 1007.6 1007.1 19.8
25/09:00pm 10.4 7.3 10.4 100 0.0 NW 17 22 9 12 1007.3 1006.8 16.2
25/08:30pm 10.4 7.3 10.4 100 0.0 WNW 17 26 9 14 1006.8 1006.4 15.0
25/08:00pm 10.5 6.5 10.5 100 0.0 WNW 22 33 12 18 1007.3 1006.8 14.4
25/07:30pm 10.6 7.0 10.6 100 0.0 WNW 20 28 11 15 1007.2 1006.7 13.8
25/07:00pm 10.6 6.3 10.6 100 0.0 WNW 24 35 13 19 1007.1 1006.6 12.8
25/06:30pm 10.7 6.4 10.7 100 0.0 NW 24 37 13 20 1007.0 1006.5 12.0
25/06:00pm 10.7 5.2 10.7 100 0.0 WNW 30 46 16 25 1006.7 1006.3 11.0
25/05:30pm 10.8 5.4 10.8 100 0.0 NW 30 48 16 26 1006.6 1006.2 8.8
25/05:00pm 10.9 5.5 10.9 100 0.0 NW 30 52 16 28 1007.1 1006.6 8.0
25/04:54pm 10.9 5.5 10.9 100 0.0 NW 30 52 16 28 1007.0 1006.5 8.0
25/04:30pm 10.8 4.8 10.8 100 0.0 NW 33 44 18 24 1007.2 1006.7 7.4
25/04:06pm 10.9 4.9 10.9 100 0.0 NW 33 52 18 28 1007.3 1006.8 7.0
25/04:00pm 10.9 5.1 10.9 100 0.0 NW 32 44 17 24 1007.3 1006.8 7.0
25/03:30pm 11.1 6.1 11.1 100 0.0 NW 28 43 15 23 1007.2 1006.7 6.8
25/03:16pm 11.1 6.1 11.1 100 0.0 WNW 28 46 15 25 1007.2 1006.7 6.4
25/03:00pm 11.5 7.4 11.5 100 0.0 NW 24 39 13 21 1007.2 1006.7 6.4
25/02:30pm 11.4 7.3 11.4 100 0.0 NW 24 35 13 19 1007.1 1006.6 6.2
25/02:00pm 11.2 6.6 11.2 100 0.0 NW 26 41 14 22 1007.6 1007.1 6.0
25/01:30pm 11.1 6.9 11.1 100 0.0 NW 24 37 13 20 1007.8 1007.4 6.0
25/01:00pm 10.7 6.4 10.7 100 0.0 NNW 24 35 13 19 1008.2 1007.8 5.8
25/12:30pm 10.2 5.7 10.2 100 0.0 NNW 24 39 13 21 1008.6 1008.2 5.8
25/12:00pm 9.7 4.4 9.7 100 0.0 NNW 28 43 15 23 1009.4 1009.0 5.8
25/11:30am 9.5 4.1 9.5 100 0.0 NNW 28 44 15 24 1010.1 1009.7 3.6
25/11:00am 9.2 2.4 9.2 100 0.0 NNW 35 50 19 27 1010.8 1010.4 3.0
25/10:30am 9.1 2.8 9.1 100 0.0 NNW 32 50 17 27 1011.4 1011.0 2.2
25/10:18am 9.1 2.8 9.1 100 0.0 NNW 32 54 17 29 1011.5 1011.1 2.0
25/10:00am 8.8 2.8 8.8 100 0.0 NNW 30 43 16 23 1011.7 1011.3 1.4
25/09:30am 8.5 3.6 8.4 99 0.0 NW 24 37 13 20 1012.1 1011.7 0.8
25/09:00am 8.5 3.8 7.7 95 0.4 NW 22 32 12 17 1012.4 1012.0 1.2
25/08:30am 9.1 3.4 6.5 84 1.2 NW 26 41 14 22 1012.5 1012.1 0.8
25/08:00am 9.8 3.1 5.4 74 2.1 NNW 30 50 16 27 1012.5 1012.1 0.6
25/07:30am 10.1 3.2 4.5 68 2.6 NNW 30 48 16 26 1012.6 1012.3 0.6
25/07:26am 10.3 3.3 4.2 66 2.8 NNW 30 48 16 26 1012.6 1012.3 0.6
25/07:00am 10.3 4.0 3.8 64 3.0 NNW 26 39 14 21 1012.6 1012.3 0.6
25/06:30am 9.8 4.6 3.5 65 2.8 NNW 20 28 11 15 1012.5 1012.1 0.6
25/06:00am 9.3 4.5 4.7 73 2.1 NW 19 24 10 13 1012.6 1012.3 0.6
25/05:30am 9.3 3.5 4.5 72 2.2 NW 24 35 13 19 1013.1 1012.7 0.6
25/05:00am 9.3 3.6 4.9 74 2.0 NW 24 32 13 17 1013.3 1012.9 0.6
25/04:30am 8.9 4.3 5.6 80 1.5 NW 19 24 10 13 1013.4 1013.0 0.6
25/04:00am 9.3 3.9 4.3 71 2.3 NW 22 32 12 17 1013.6 1013.2 0.4
25/03:30am 12.1 6.5 -0.1 43 5.2 NW 19 24 10 13 1013.7 1013.3 0.2
25/03:00am 12.1 6.6 0.5 45 5.0 NW 19 28 10 15 1013.8 1013.4 0.2
25/02:30am 11.7 5.8 1.4 49 4.5 NNW 22 32 12 17 1013.7 1013.3 0.2
25/02:00am 13.2 6.9 -1.2 37 6.0 N 22 32 12 17 1013.7 1013.3 0.0
25/01:30am 13.7 7.3 -1.9 34 6.4 N 22 32 12 17 1013.6 1013.2 0.0
25/01:00am 13.1 6.5 -0.5 39 5.8 N 24 33 13 18 1014.0 1013.6 0.0
25/12:30am 13.3 7.1 0.0 40 5.7 N 22 33 12 18 1014.3 1014.0 0.0
25/12:00am 13.4 7.3 0.1 40 5.7 N 22 32 12 17 1014.7 1014.4 0.0
 
Date/Time
CST
Temp
°C
App
Temp
°C
Dew
Point
Rel
Hum
%
Delta-T
°C
Wind Press
QNH
hPa
Press
MSL
hPa
Rain
since 9 am
mm
Dir
 
Spd
km/h
Gust
km/h
Spd
kts
Gust
kts
24/11:30pm 13.7 6.6 -1.1 36 6.2 N 26 33 14 18 1015.1 1014.7 0.0
24/11:00pm 13.5 7.5 -1.3 36 6.2 N 20 32 11 17 1015.5 1015.1 0.0
24/10:30pm 13.7 6.7 -0.3 38 6.0 N 26 35 14 19 1015.8 1015.4 0.0
24/10:00pm 13.3 5.9 -0.7 38 5.9 N 28 39 15 21 1016.2 1015.9 0.0
24/09:30pm 13.0 7.0 -1.3 37 5.9 N 20 28 11 15 1016.6 1016.3 0.0
24/09:00pm 12.8 6.4 -1.5 37 5.9 N 22 30 12 16 1016.8 1016.5 0.0
24/08:30pm 12.9 6.5 -1.4 37 5.9 N 22 32 12 17 1017.2 1016.8 0.0
24/08:00pm 13.9 7.8 -2.1 33 6.6 NNW 20 24 11 13 1017.4 1017.0 0.0
24/07:30pm 13.6 8.2 -1.2 36 6.2 N 17 20 9 11 1017.4 1017.0 0.0
24/07:00pm 13.7 8.5 0.4 40 5.8 N 17 20 9 11 1017.4 1017.0 0.0
24/06:30pm 14.3 9.7 1.6 42 5.7 N 15 20 8 11 1017.4 1017.0 0.0
24/06:00pm 13.9 10.0 3.4 49 4.9 N 13 17 7 9 1017.4 1017.0 0.0
24/05:30pm 14.5 10.5 3.0 46 5.3 N 13 17 7 9 1017.5 1017.2 0.0
24/05:00pm 14.9 10.9 3.1 45 5.5 N 13 20 7 11 1017.4 1017.0 0.0
24/04:30pm 15.8 11.6 3.6 44 5.8 NNW 15 20 8 11 1017.7 1017.4 0.0
24/04:00pm 16.2 12.4 3.9 44 5.9 N 13 19 7 10 1017.8 1017.5 0.0
24/03:30pm 16.0 11.0 4.4 46 5.6 N 20 26 11 14 1018.0 1017.7 0.0
24/03:00pm 16.1 11.6 6.0 51 5.0 N 19 26 10 14 1018.2 1017.9 0.0
24/02:30pm 16.1 11.5 6.3 52 4.9 N 20 28 11 15 1018.4 1018.1 0.0
24/02:00pm 16.0 11.7 7.0 55 4.6 NNW 19 24 10 13 1018.7 1018.4 0.0
24/01:30pm 16.0 12.2 7.7 58 4.3 NNW 17 24 9 13 1019.0 1018.7 0.0
24/01:00pm 14.4 10.3 7.7 64 3.4 N 19 26 10 14 1019.8 1019.5 0.0
24/12:30pm 14.7 11.1 8.2 65 3.3 N 17 24 9 13 1020.4 1020.1 0.0
24/12:00pm 14.8 11.4 9.2 69 2.9 N 17 20 9 11 1020.9 1020.7 0.0
24/11:30am 14.3 11.7 9.3 72 2.6 N 13 19 7 10 1021.8 1021.5 0.0
24/11:00am 13.8 10.7 9.0 73 2.5 NW 15 19 8 10 1022.5 1022.3 0.0
24/10:30am 13.5 11.1 10.1 80 1.8 NNW 13 17 7 9 1023.0 1022.8 0.0
24/10:00am 13.4 12.1 11.1 86 1.2 N 9 13 5 7 1023.0 1022.8 0.0
24/09:30am 12.8 12.0 12.8 100 0.0 NNW 9 11 5 6 1023.2 1022.9 0.0
24/09:00am 11.4 9.4 11.4 100 0.0 NNW 13 17 7 9 1023.2 1022.9 0.4
24/08:30am 10.0 7.6 10.0 100 0.0 NW 13 15 7 8 1023.2 1022.9 0.4
24/08:00am 9.9 7.5 9.9 100 0.0 NW 13 13 7 7 1023.0 1022.8 0.4
24/07:30am 9.4 7.2 9.4 100 0.0 NW 11 15 6 8 1022.6 1022.4 0.4
24/07:00am 9.0 7.1 9.0 100 0.0 NNW 9 13 5 7 1022.3 1022.0 0.2
24/06:30am 8.8 7.2 8.8 100 0.0 WNW 7 11 4 6 1022.0 1021.7 0.2
24/06:00am 9.1 7.2 9.1 100 0.0 WNW 9 11 5 6 1021.7 1021.4 0.2
24/05:30am 9.3 7.1 9.3 100 0.0 WNW 11 13 6 7 1021.8 1021.5 0.2
24/05:00am 9.8 7.3 9.8 100 0.0 WNW 13 17 7 9 1021.7 1021.4 0.2
24/04:30am 10.1 7.3 10.1 100 0.0 WNW 15 19 8 10 1021.8 1021.5 0.2
24/04:00am 10.2 7.8 10.2 100 0.0 WNW 13 17 7 9 1021.7 1021.4 0.2
24/03:30am 10.4 7.7 10.4 100 0.0 WNW 15 17 8 9 1021.8 1021.5 0.2
24/03:00am 10.2 7.8 10.2 100 0.0 W 13 13 7 7 1021.9 1021.6 0.2
24/02:30am 10.1 7.7 10.1 100 0.0 WSW 13 17 7 9 1022.1 1021.8 0.2
24/02:00am 10.0 6.8 10.0 100 0.0 WSW 17 19 9 10 1022.1 1021.8 0.0
24/01:30am 10.1 6.9 10.1 100 0.0 W 17 19 9 10 1022.6 1022.4 0.0
24/01:00am 10.1 7.7 10.1 100 0.0 WSW 13 17 7 9 1022.8 1022.6 0.0
24/12:30am 10.2 7.5 10.2 100 0.0 W 15 17 8 9 1023.2 1022.9 0.0
24/12:00am 10.1 7.3 10.1 100 0.0 W 15 19 8 10 1023.2 1022.9 0.0
 
Date/Time
CST
Temp
°C
App
Temp
°C
Dew
Point
Rel
Hum
%
Delta-T
°C
Wind Press
QNH
hPa
Press
MSL
hPa
Rain
since 9 am
mm
Dir
 
Spd
km/h
Gust
km/h
Spd
kts
Gust
kts
23/11:30pm 10.4 8.1 10.4 100 0.0 WSW 13 17 7 9 1023.2 1022.9 0.0
23/11:00pm 10.3 7.6 10.3 100 0.0 W 15 17 8 9 1023.3 1023.0 0.0
23/10:30pm 10.4 7.3 10.4 100 0.0 W 17 20 9 11 1023.7 1023.4 0.0
23/10:00pm 10.5 7.5 10.5 100 0.0 W 17 20 9 11 1024.0 1023.8 0.0
23/09:30pm 10.7 7.7 10.5 99 0.1 W 17 20 9 11 1024.1 1023.9 0.0
23/09:00pm 10.8 7.4 10.6 99 0.1 W 19 26 10 14 1024.0 1023.8 0.0
23/08:30pm 10.7 7.6 10.4 98 0.2 W 17 24 9 13 1024.0 1023.8 0.0
23/08:00pm 10.9 7.7 10.0 94 0.5 WNW 17 24 9 13 1023.8 1023.5 0.0
23/07:30pm 11.3 7.1 9.9 91 0.7 W 22 30 12 16 1023.7 1023.4 0.0
23/07:00pm 11.1 7.3 9.7 91 0.7 WNW 20 26 11 14 1023.4 1023.1 0.0
23/06:30pm 11.2 7.5 9.6 90 0.8 W 19 22 10 12 1023.3 1023.0 0.0
23/06:00pm 11.1 7.4 9.4 89 0.9 W 19 22 10 12 1023.0 1022.8 0.0
23/05:30pm 11.6 7.6 9.2 85 1.2 W 20 26 11 14 1022.6 1022.4 0.0
23/05:00pm 11.8 7.9 8.8 82 1.5 W 19 24 10 13 1022.6 1022.4 0.0
23/04:30pm 12.7 8.8 8.6 76 2.1 W 19 24 10 13 1022.4 1022.2 0.0
23/04:00pm 13.2 9.6 8.3 72 2.5 W 17 22 9 12 1022.4 1022.2 0.0
23/03:30pm 13.7 9.7 8.3 70 2.8 W 19 26 10 14 1022.4 1022.2 0.0
23/03:00pm 13.3 8.0 8.6 73 2.4 W 26 35 14 19 1022.2 1021.9 0.0
23/02:30pm 13.2 8.1 9.1 76 2.1 W 26 37 14 20 1022.2 1021.9 0.0
23/02:00pm 13.2 8.6 9.6 79 1.9 W 24 32 13 17 1022.2 1021.9 0.0
23/01:30pm 13.0 7.7 9.8 81 1.7 W 28 39 15 21 1022.1 1021.8 0.0
23/01:00pm 13.4 7.3 9.6 78 2.0 W 32 41 17 22 1022.0 1021.7 0.0
23/12:30pm 12.6 7.0 8.9 78 1.9 W 28 37 15 20 1022.1 1021.8 0.0
23/12:00pm 12.4 8.1 9.4 82 1.6 W 22 33 12 18 1022.4 1022.2 0.0
23/11:30am 11.9 6.9 9.5 85 1.2 W 26 35 14 19 1022.7 1022.5 0.0
23/11:00am 11.4 7.3 10.1 92 0.7 W 22 35 12 19 1022.9 1022.7 0.0
23/10:30am 10.8 7.1 9.6 92 0.6 W 19 26 10 14 1023.0 1022.8 0.0
23/10:00am 10.8 6.8 9.2 90 0.8 WNW 20 32 11 17 1023.0 1022.8 0.0
23/09:30am 10.3 6.3 8.9 91 0.7 W 20 28 11 15 1022.7 1022.5 0.0
23/09:00am 9.7 5.6 8.6 93 0.6 W 20 28 11 15 1022.5 1022.3 12.0
23/08:30am 9.2 4.9 7.8 91 0.7 W 20 28 11 15 1022.3 1022.0 12.0
23/08:00am 8.9 4.5 7.5 91 0.7 W 20 28 11 15 1022.1 1021.8 12.0
23/07:30am 8.7 4.5 7.3 91 0.7 W 19 24 10 13 1022.0 1021.7 12.0
23/07:00am 8.5 4.2 6.8 89 0.8 W 19 26 10 14 1021.5 1021.2 12.0
23/06:30am 8.7 3.4 6.7 87 1.0 WSW 24 35 13 19 1020.5 1020.2 12.0
23/06:00am 8.5 3.3 7.1 91 0.7 W 24 35 13 19 1020.3 1020.0 12.0
23/05:30am 8.5 3.0 7.7 95 0.4 W 26 35 14 19 1020.0 1019.7 12.0
23/05:00am 8.8 3.0 7.9 94 0.4 W 28 41 15 22 1019.7 1019.4 12.0
23/04:30am 9.0 2.2 7.9 93 0.5 W 33 46 18 25 1019.2 1018.9 12.0
23/04:00am 9.1 2.4 7.5 90 0.8 W 32 46 17 25 1018.7 1018.4 12.0
23/03:30am 9.0 2.2 7.6 91 0.7 W 33 52 18 28 1018.3 1018.0 12.0
23/03:21am 9.0 2.2 7.8 92 0.6 W 33 52 18 28 1018.1 1017.8 12.0
23/03:00am 9.1 1.3 8.2 94 0.4 W 39 54 21 29 1017.9 1017.6 12.0
23/02:30am 9.3 1.3 9.0 98 0.2 W 41 63 22 34 1017.5 1017.2 12.0
23/02:29am 9.3 1.7 9.2 99 0.1 W 39 63 21 34 1017.5 1017.2 12.0
23/02:00am 8.9 1.2 8.8 99 0.1 W 39 50 21 27 1017.5 1017.2 12.0
23/01:47am 8.8 1.5 8.7 99 0.1 W 37 57 20 31 1017.4 1017.0 12.0
23/01:30am 8.7 1.7 8.6 99 0.0 W 35 50 19 27 1017.4 1017.0 12.0
23/01:00am 8.5 1.1 8.4 99 0.0 W 37 50 20 27 1017.3 1016.9 12.0
23/12:30am 8.7 1.4 8.6 99 0.0 WSW 37 67 20 36 1017.3 1016.9 11.8
23/12:19am 9.0 1.4 8.9 99 0.1 WSW 39 76 21 41 1016.4 1016.1 11.8
23/12:00am 9.8 3.1 9.7 99 0.1 W 35 54 19 29 1016.4 1016.1 6.2
 
Date/Time
CST
Temp
°C
App
Temp
°C
Dew
Point
Rel
Hum
%
Delta-T
°C
Wind Press
QNH
hPa
Press
MSL
hPa
Rain
since 9 am
mm
Dir
 
Spd
km/h
Gust
km/h
Spd
kts
Gust
kts
22/11:40pm 9.8 2.7 9.5 98 0.2 W 37 56 20 30 1016.4 1016.1 6.2
22/11:30pm 9.8 3.0 9.3 97 0.3 W 35 50 19 27 1016.4 1016.1 6.2
22/11:00pm 9.7 2.6 9.6 99 0.1 W 37 54 20 29 1016.0 1015.7 6.2

Other Formats:

Comma delimited format used in spreadsheet applications
http://www.bom.gov.au/fwo/IDS60801/IDS60801.94678.axf

JavaScript Object Notation format (JSON) in row-major order
http://www.bom.gov.au/fwo/IDS60801/IDS60801.94678.json